SILO ALERT LOG
| Silo ID | Alert Type | Alert Message | Silo Type | Points | Depth (mm) | Strength | Temperature (°C) | Humidity (%) | Height (mm) | Volume (㎥) | Weight (t) | Flag | Time |
|---|---|---|---|---|---|---|---|---|---|---|---|---|---|
| WJWJR01 | Humidity | 습도센서 측정값이 80% 초과 | 평 | 78 | 7510 | 1209 | 27.6 | 90.1 | 129 | 14.703 | 9.295 | 0 | 2026-07-10 16:26:02.000 |
| WJWJR05 | Humidity | 습도센서 측정값이 80% 초과 | 평 | 19 | 1020 | 2666 | 27.8 | 81.9 | 6710 | 758.883 | 479.766 | 23 | 2026-07-10 16:25:42.000 |
| WJWJR05 | Humidity | 습도센서 측정값이 80% 초과 | 평 | 6 | 100 | 3581 | 27.4 | 81.3 | 7630 | 862.933 | 545.546 | 23 | 2026-07-10 15:28:40.000 |
| WJWJR01 | Humidity | 습도센서 측정값이 80% 초과 | 평 | 72 | 7530 | 1227 | 26.7 | 88 | 109 | 12.441 | 7.865 | 0 | 2026-07-10 15:26:02.000 |
| WJWJR01 | Humidity | 습도센서 측정값이 80% 초과 | 평 | 75 | 7510 | 1232 | 25.6 | 87.7 | 129 | 14.703 | 9.295 | 0 | 2026-07-10 14:26:01.000 |
| WJWJR05 | Humidity | 습도센서 측정값이 80% 초과 | 평 | 63 | 5430 | 2594 | 26.8 | 80.8 | 2300 | 260.124 | 164.45 | 0 | 2026-07-10 14:25:45.000 |
| WJWJR01 | Humidity | 습도센서 측정값이 80% 초과 | 평 | 72 | 7490 | 1235 | 25.8 | 87.9 | 149 | 16.965 | 10.725 | 0 | 2026-07-10 13:26:05.000 |
| WJWJR01 | Humidity | 습도센서 측정값이 80% 초과 | 평 | 76 | 7540 | 1242 | 26.5 | 89.4 | 99 | 11.31 | 7.15 | 0 | 2026-07-10 12:25:59.000 |
| WJWJR01 | Humidity | 습도센서 측정값이 80% 초과 | 평 | 72 | 7510 | 1194 | 26.7 | 90.6 | 129 | 14.703 | 9.295 | 0 | 2026-07-10 11:26:00.000 |
| WJWJR01 | Humidity | 습도센서 측정값이 80% 초과 | 평 | 72 | 7530 | 1194 | 26.1 | 90.3 | 109 | 12.441 | 7.865 | 0 | 2026-07-10 10:25:58.000 |
| WJWJR01 | Humidity | 습도센서 측정값이 80% 초과 | 평 | 73 | 7530 | 1211 | 25.3 | 88.1 | 109 | 12.441 | 7.865 | 0 | 2026-07-10 09:26:00.000 |
| WJWJR01 | Humidity | 습도센서 측정값이 80% 초과 | 평 | 77 | 7470 | 1211 | 24.4 | 86.4 | 169 | 19.227 | 12.155 | 0 | 2026-07-10 08:26:06.000 |
| WJWJR05 | Humidity | 습도센서 측정값이 80% 초과 | 평 | 66 | 5280 | 3080 | 26 | 80.5 | 2450 | 277.088 | 175.175 | 0 | 2026-07-10 08:25:55.000 |
| WJWJR01 | Humidity | 습도센서 측정값이 80% 초과 | 평 | 73 | 7530 | 1206 | 23.2 | 85.5 | 109 | 12.441 | 7.865 | 0 | 2026-07-10 07:25:58.000 |
| WJWJR05 | Humidity | 습도센서 측정값이 80% 초과 | 평 | 66 | 5290 | 3102 | 25.7 | 81.1 | 2440 | 275.957 | 174.46 | 0 | 2026-07-10 07:25:49.000 |
| WJWJR01 | Humidity | 습도센서 측정값이 80% 초과 | 평 | 78 | 7480 | 1218 | 22.9 | 83.9 | 159 | 18.096 | 11.44 | 0 | 2026-07-10 06:26:00.000 |
| WJWJR05 | Humidity | 습도센서 측정값이 80% 초과 | 평 | 67 | 5270 | 3116 | 25.7 | 80.9 | 2460 | 278.219 | 175.89 | 0 | 2026-07-10 06:25:53.000 |
| WJWJR01 | Humidity | 습도센서 측정값이 80% 초과 | 평 | 74 | 7540 | 1230 | 22.9 | 83.9 | 99 | 11.31 | 7.15 | 0 | 2026-07-10 05:26:10.000 |
| WJWJR05 | Humidity | 습도센서 측정값이 80% 초과 | 평 | 65 | 5250 | 3105 | 25.7 | 80.8 | 2480 | 280.481 | 177.32 | 0 | 2026-07-10 05:25:49.000 |
| WJWJR01 | Humidity | 습도센서 측정값이 80% 초과 | 평 | 72 | 7530 | 1233 | 22.9 | 83.9 | 109 | 12.441 | 7.865 | 0 | 2026-07-10 04:25:57.000 |
[첫 페이지] [34] [35] [36] [37] 38 [39] [40] [41] [42] [마지막 페이지]